sensor_id;sensor_type;location;lat;lon;timestamp;temperature;humidity
38118;DHT22;23928;47.562;7.508;2023-06-19T00:01:45;20.60;99.90
38118;DHT22;23928;47.562;7.508;2023-06-19T00:04:11;20.40;99.90
38118;DHT22;23928;47.562;7.508;2023-06-19T00:06:37;20.20;99.90
38118;DHT22;23928;47.562;7.508;2023-06-19T00:09:03;20.30;99.90
38118;DHT22;23928;47.562;7.508;2023-06-19T00:11:29;20.50;99.90
38118;DHT22;23928;47.562;7.508;2023-06-19T00:13:55;20.60;99.90
38118;DHT22;23928;47.562;7.508;2023-06-19T00:16:21;20.60;99.90
38118;DHT22;23928;47.562;7.508;2023-06-19T00:18:46;20.60;99.90
38118;DHT22;23928;47.562;7.508;2023-06-19T00:21:12;20.50;99.90
38118;DHT22;23928;47.562;7.508;2023-06-19T00:23:38;20.60;99.90
38118;DHT22;23928;47.562;7.508;2023-06-19T00:26:03;20.60;99.90
38118;DHT22;23928;47.562;7.508;2023-06-19T00:28:30;20.50;99.90
38118;DHT22;23928;47.562;7.508;2023-06-19T00:30:56;20.30;99.90
38118;DHT22;23928;47.562;7.508;2023-06-19T00:33:21;20.30;99.90
38118;DHT22;23928;47.562;7.508;2023-06-19T00:35:51;20.40;99.90
38118;DHT22;23928;47.562;7.508;2023-06-19T00:38:16;20.30;99.90
38118;DHT22;23928;47.562;7.508;2023-06-19T00:40:42;20.30;99.90
38118;DHT22;23928;47.562;7.508;2023-06-19T00:43:08;20.30;99.90
38118;DHT22;23928;47.562;7.508;2023-06-19T00:45:33;20.30;99.90
38118;DHT22;23928;47.562;7.508;2023-06-19T00:47:59;20.40;99.90
38118;DHT22;23928;47.562;7.508;2023-06-19T00:50:27;20.60;99.90
38118;DHT22;23928;47.562;7.508;2023-06-19T00:52:53;20.50;99.90
38118;DHT22;23928;47.562;7.508;2023-06-19T00:55:19;20.40;99.90
38118;DHT22;23928;47.562;7.508;2023-06-19T00:57:46;20.30;99.90
38118;DHT22;23928;47.562;7.508;2023-06-19T01:00:12;20.20;99.90
38118;DHT22;23928;47.562;7.508;2023-06-19T01:02:38;20.30;99.90
38118;DHT22;23928;47.562;7.508;2023-06-19T01:05:05;20.30;99.90
38118;DHT22;23928;47.562;7.508;2023-06-19T01:07:41;20.30;99.90
38118;DHT22;23928;47.562;7.508;2023-06-19T01:10:12;20.40;99.90
38118;DHT22;23928;47.562;7.508;2023-06-19T01:12:45;20.30;99.90
38118;DHT22;23928;47.562;7.508;2023-06-19T01:15:16;20.20;99.90
38118;DHT22;23928;47.562;7.508;2023-06-19T01:17:41;20.10;99.90
38118;DHT22;23928;47.562;7.508;2023-06-19T01:20:08;20.10;99.90
38118;DHT22;23928;47.562;7.508;2023-06-19T01:22:36;20.20;99.90
38118;DHT22;23928;47.562;7.508;2023-06-19T01:25:02;20.30;99.90
38118;DHT22;23928;47.562;7.508;2023-06-19T01:27:30;20.00;99.90
38118;DHT22;23928;47.562;7.508;2023-06-19T01:29:59;19.90;99.90
38118;DHT22;23928;47.562;7.508;2023-06-19T01:32:34;20.00;99.90
38118;DHT22;23928;47.562;7.508;2023-06-19T01:35:04;19.70;99.90
38118;DHT22;23928;47.562;7.508;2023-06-19T01:37:31;19.60;99.90
38118;DHT22;23928;47.562;7.508;2023-06-19T01:39:59;19.70;99.90
38118;DHT22;23928;47.562;7.508;2023-06-19T01:42:26;19.70;99.90
38118;DHT22;23928;47.562;7.508;2023-06-19T01:44:52;19.80;99.90
38118;DHT22;23928;47.562;7.508;2023-06-19T01:47:19;19.70;99.90
38118;DHT22;23928;47.562;7.508;2023-06-19T01:49:48;19.60;99.90
38118;DHT22;23928;47.562;7.508;2023-06-19T01:52:14;19.60;99.90
38118;DHT22;23928;47.562;7.508;2023-06-19T01:54:40;19.60;99.90
38118;DHT22;23928;47.562;7.508;2023-06-19T01:57:06;19.70;99.90
38118;DHT22;23928;47.562;7.508;2023-06-19T01:59:31;19.80;99.90
38118;DHT22;23928;47.562;7.508;2023-06-19T02:01:57;19.80;99.90
38118;DHT22;23928;47.562;7.508;2023-06-19T02:04:22;19.70;99.90
38118;DHT22;23928;47.562;7.508;2023-06-19T02:06:48;19.50;99.90
38118;DHT22;23928;47.562;7.508;2023-06-19T02:09:14;19.40;99.90
38118;DHT22;23928;47.562;7.508;2023-06-19T02:11:39;19.60;99.90
38118;DHT22;23928;47.562;7.508;2023-06-19T02:14:05;19.90;99.90
38118;DHT22;23928;47.562;7.508;2023-06-19T02:16:30;20.00;99.90
38118;DHT22;23928;47.562;7.508;2023-06-19T02:18:56;20.00;99.90
38118;DHT22;23928;47.562;7.508;2023-06-19T02:21:22;20.20;99.90
38118;DHT22;23928;47.562;7.508;2023-06-19T02:23:48;20.10;99.90
38118;DHT22;23928;47.562;7.508;2023-06-19T02:26:13;19.90;99.90
38118;DHT22;23928;47.562;7.508;2023-06-19T02:28:39;19.90;99.90
38118;DHT22;23928;47.562;7.508;2023-06-19T02:31:05;19.80;99.90
38118;DHT22;23928;47.562;7.508;2023-06-19T02:33:30;20.00;99.90
38118;DHT22;23928;47.562;7.508;2023-06-19T02:35:57;20.00;99.90
38118;DHT22;23928;47.562;7.508;2023-06-19T02:38:25;20.20;99.90
38118;DHT22;23928;47.562;7.508;2023-06-19T02:40:50;20.20;99.90
38118;DHT22;23928;47.562;7.508;2023-06-19T02:43:16;20.20;99.90
38118;DHT22;23928;47.562;7.508;2023-06-19T02:45:42;20.00;99.90
38118;DHT22;23928;47.562;7.508;2023-06-19T02:48:07;19.80;99.90
38118;DHT22;23928;47.562;7.508;2023-06-19T02:50:33;19.80;99.90
38118;DHT22;23928;47.562;7.508;2023-06-19T02:52:59;19.80;99.90
38118;DHT22;23928;47.562;7.508;2023-06-19T02:55:25;19.80;99.90
38118;DHT22;23928;47.562;7.508;2023-06-19T02:57:50;19.50;99.90
38118;DHT22;23928;47.562;7.508;2023-06-19T03:00:16;19.50;99.90
38118;DHT22;23928;47.562;7.508;2023-06-19T03:02:42;19.60;99.90
38118;DHT22;23928;47.562;7.508;2023-06-19T03:05:10;19.60;99.90
38118;DHT22;23928;47.562;7.508;2023-06-19T03:07:36;19.80;99.90
38118;DHT22;23928;47.562;7.508;2023-06-19T03:10:02;19.90;99.90
38118;DHT22;23928;47.562;7.508;2023-06-19T03:12:28;19.80;99.90
38118;DHT22;23928;47.562;7.508;2023-06-19T03:14:53;19.70;99.90
38118;DHT22;23928;47.562;7.508;2023-06-19T03:17:19;19.50;99.90
38118;DHT22;23928;47.562;7.508;2023-06-19T03:19:44;19.60;99.90
38118;DHT22;23928;47.562;7.508;2023-06-19T03:22:10;19.80;99.90
38118;DHT22;23928;47.562;7.508;2023-06-19T03:24:35;19.70;99.90
38118;DHT22;23928;47.562;7.508;2023-06-19T03:27:01;19.70;99.90
38118;DHT22;23928;47.562;7.508;2023-06-19T03:29:26;19.80;99.90
38118;DHT22;23928;47.562;7.508;2023-06-19T03:31:52;19.80;99.90
38118;DHT22;23928;47.562;7.508;2023-06-19T03:34:17;20.00;99.90
38118;DHT22;23928;47.562;7.508;2023-06-19T03:36:43;20.00;99.90
38118;DHT22;23928;47.562;7.508;2023-06-19T03:39:09;20.00;99.90
38118;DHT22;23928;47.562;7.508;2023-06-19T03:41:34;19.90;99.90
38118;DHT22;23928;47.562;7.508;2023-06-19T03:44:00;19.80;99.90
38118;DHT22;23928;47.562;7.508;2023-06-19T03:46:25;19.80;99.90
38118;DHT22;23928;47.562;7.508;2023-06-19T03:48:51;19.90;99.90
38118;DHT22;23928;47.562;7.508;2023-06-19T03:51:16;19.80;99.90
38118;DHT22;23928;47.562;7.508;2023-06-19T03:53:42;19.50;99.90
38118;DHT22;23928;47.562;7.508;2023-06-19T03:56:08;19.40;99.90
38118;DHT22;23928;47.562;7.508;2023-06-19T03:58:33;19.60;99.90
38118;DHT22;23928;47.562;7.508;2023-06-19T04:00:59;19.60;99.90
38118;DHT22;23928;47.562;7.508;2023-06-19T04:03:24;19.70;99.90
38118;DHT22;23928;47.562;7.508;2023-06-19T04:05:50;19.70;99.90
38118;DHT22;23928;47.562;7.508;2023-06-19T04:08:16;19.60;99.90
38118;DHT22;23928;47.562;7.508;2023-06-19T04:10:41;19.60;99.90
38118;DHT22;23928;47.562;7.508;2023-06-19T04:13:07;19.50;99.90
38118;DHT22;23928;47.562;7.508;2023-06-19T04:15:33;19.60;99.90
38118;DHT22;23928;47.562;7.508;2023-06-19T04:17:59;19.60;99.90
38118;DHT22;23928;47.562;7.508;2023-06-19T04:20:26;19.60;99.90
38118;DHT22;23928;47.562;7.508;2023-06-19T04:22:52;19.90;99.90
38118;DHT22;23928;47.562;7.508;2023-06-19T04:25:17;20.20;99.90
38118;DHT22;23928;47.562;7.508;2023-06-19T04:27:43;20.30;99.90
38118;DHT22;23928;47.562;7.508;2023-06-19T04:30:10;20.40;99.90
38118;DHT22;23928;47.562;7.508;2023-06-19T04:32:36;20.50;99.90
38118;DHT22;23928;47.562;7.508;2023-06-19T04:35:09;20.40;99.90
38118;DHT22;23928;47.562;7.508;2023-06-19T04:37:34;20.20;99.90
38118;DHT22;23928;47.562;7.508;2023-06-19T04:40:00;20.00;99.90
38118;DHT22;23928;47.562;7.508;2023-06-19T04:42:26;19.90;99.90
38118;DHT22;23928;47.562;7.508;2023-06-19T04:44:52;19.70;99.90
38118;DHT22;23928;47.562;7.508;2023-06-19T04:47:21;19.70;99.90
38118;DHT22;23928;47.562;7.508;2023-06-19T04:49:47;19.80;99.90
38118;DHT22;23928;47.562;7.508;2023-06-19T04:52:13;20.00;99.90
38118;DHT22;23928;47.562;7.508;2023-06-19T04:54:38;20.20;99.90
38118;DHT22;23928;47.562;7.508;2023-06-19T04:57:04;20.10;99.90
38118;DHT22;23928;47.562;7.508;2023-06-19T04:59:30;20.30;99.90
38118;DHT22;23928;47.562;7.508;2023-06-19T05:01:56;20.30;99.90
38118;DHT22;23928;47.562;7.508;2023-06-19T05:04:22;20.40;99.90
38118;DHT22;23928;47.562;7.508;2023-06-19T05:06:49;20.50;99.90
38118;DHT22;23928;47.562;7.508;2023-06-19T05:09:14;20.50;99.90
38118;DHT22;23928;47.562;7.508;2023-06-19T05:11:40;20.50;99.90
38118;DHT22;23928;47.562;7.508;2023-06-19T05:14:06;20.50;99.90
38118;DHT22;23928;47.562;7.508;2023-06-19T05:16:33;20.30;99.90
38118;DHT22;23928;47.562;7.508;2023-06-19T05:18:58;20.20;99.90
38118;DHT22;23928;47.562;7.508;2023-06-19T05:21:24;20.30;99.90
38118;DHT22;23928;47.562;7.508;2023-06-19T05:23:49;20.40;99.90
38118;DHT22;23928;47.562;7.508;2023-06-19T05:26:16;20.60;99.90
38118;DHT22;23928;47.562;7.508;2023-06-19T05:28:42;20.70;99.90
38118;DHT22;23928;47.562;7.508;2023-06-19T05:31:08;20.80;99.90
38118;DHT22;23928;47.562;7.508;2023-06-19T05:33:33;20.80;99.90
38118;DHT22;23928;47.562;7.508;2023-06-19T05:35:59;20.90;99.90
38118;DHT22;23928;47.562;7.508;2023-06-19T05:38:25;20.90;99.90
38118;DHT22;23928;47.562;7.508;2023-06-19T05:40:51;21.00;99.90
38118;DHT22;23928;47.562;7.508;2023-06-19T05:43:17;21.00;99.90
38118;DHT22;23928;47.562;7.508;2023-06-19T05:45:44;20.90;99.90
38118;DHT22;23928;47.562;7.508;2023-06-19T05:48:10;20.90;99.90
38118;DHT22;23928;47.562;7.508;2023-06-19T05:50:35;20.70;99.90
38118;DHT22;23928;47.562;7.508;2023-06-19T05:53:01;20.80;99.90
38118;DHT22;23928;47.562;7.508;2023-06-19T05:55:26;20.70;99.90
38118;DHT22;23928;47.562;7.508;2023-06-19T05:57:56;20.70;99.90
38118;DHT22;23928;47.562;7.508;2023-06-19T06:00:22;20.70;99.90
38118;DHT22;23928;47.562;7.508;2023-06-19T06:02:48;20.70;99.90
38118;DHT22;23928;47.562;7.508;2023-06-19T06:05:13;20.70;99.90
38118;DHT22;23928;47.562;7.508;2023-06-19T06:07:39;20.60;99.90
38118;DHT22;23928;47.562;7.508;2023-06-19T06:10:05;20.70;99.90
38118;DHT22;23928;47.562;7.508;2023-06-19T06:12:34;20.60;99.90
38118;DHT22;23928;47.562;7.508;2023-06-19T06:15:01;20.70;99.90
38118;DHT22;23928;47.562;7.508;2023-06-19T06:17:26;20.80;99.90
38118;DHT22;23928;47.562;7.508;2023-06-19T06:19:52;20.70;99.90
38118;DHT22;23928;47.562;7.508;2023-06-19T06:22:17;20.80;99.90
38118;DHT22;23928;47.562;7.508;2023-06-19T06:24:44;20.80;99.90
38118;DHT22;23928;47.562;7.508;2023-06-19T06:27:10;20.90;99.90
38118;DHT22;23928;47.562;7.508;2023-06-19T06:29:35;20.90;99.90
38118;DHT22;23928;47.562;7.508;2023-06-19T06:32:06;20.90;99.90
38118;DHT22;23928;47.562;7.508;2023-06-19T06:34:33;21.10;99.90
38118;DHT22;23928;47.562;7.508;2023-06-19T06:37:00;21.10;99.90
38118;DHT22;23928;47.562;7.508;2023-06-19T06:39:26;21.20;99.90
38118;DHT22;23928;47.562;7.508;2023-06-19T06:41:52;21.10;99.90
38118;DHT22;23928;47.562;7.508;2023-06-19T06:44:17;21.20;99.90
38118;DHT22;23928;47.562;7.508;2023-06-19T06:46:43;21.40;99.90
38118;DHT22;23928;47.562;7.508;2023-06-19T06:49:09;21.50;99.90
38118;DHT22;23928;47.562;7.508;2023-06-19T06:51:34;21.70;99.90
38118;DHT22;23928;47.562;7.508;2023-06-19T06:54:00;21.70;99.90
38118;DHT22;23928;47.562;7.508;2023-06-19T06:56:26;22.00;99.90
38118;DHT22;23928;47.562;7.508;2023-06-19T06:58:51;22.10;99.90
38118;DHT22;23928;47.562;7.508;2023-06-19T07:01:17;22.10;99.90
38118;DHT22;23928;47.562;7.508;2023-06-19T07:03:42;22.00;99.90
38118;DHT22;23928;47.562;7.508;2023-06-19T07:06:08;22.10;99.90
38118;DHT22;23928;47.562;7.508;2023-06-19T07:08:34;22.10;99.90
38118;DHT22;23928;47.562;7.508;2023-06-19T07:10:59;22.30;99.90
38118;DHT22;23928;47.562;7.508;2023-06-19T07:13:25;22.40;99.90
38118;DHT22;23928;47.562;7.508;2023-06-19T07:15:51;22.60;99.90
38118;DHT22;23928;47.562;7.508;2023-06-19T07:18:16;22.40;99.90
38118;DHT22;23928;47.562;7.508;2023-06-19T07:20:42;22.20;99.90
38118;DHT22;23928;47.562;7.508;2023-06-19T07:23:09;22.20;99.90
38118;DHT22;23928;47.562;7.508;2023-06-19T07:25:35;22.30;99.90
38118;DHT22;23928;47.562;7.508;2023-06-19T07:28:01;22.40;99.90
38118;DHT22;23928;47.562;7.508;2023-06-19T07:30:27;22.40;99.90
38118;DHT22;23928;47.562;7.508;2023-06-19T07:32:53;22.30;99.90
38118;DHT22;23928;47.562;7.508;2023-06-19T07:35:18;22.30;99.90
38118;DHT22;23928;47.562;7.508;2023-06-19T07:37:45;22.20;99.90
38118;DHT22;23928;47.562;7.508;2023-06-19T07:40:11;22.30;99.90
38118;DHT22;23928;47.562;7.508;2023-06-19T07:42:37;22.40;99.90
38118;DHT22;23928;47.562;7.508;2023-06-19T07:45:03;22.50;99.90
38118;DHT22;23928;47.562;7.508;2023-06-19T07:47:29;22.50;99.90
38118;DHT22;23928;47.562;7.508;2023-06-19T07:49:54;22.40;99.90
38118;DHT22;23928;47.562;7.508;2023-06-19T07:52:20;22.60;99.90
38118;DHT22;23928;47.562;7.508;2023-06-19T07:54:53;22.70;99.90
38118;DHT22;23928;47.562;7.508;2023-06-19T07:57:19;22.90;99.90
38118;DHT22;23928;47.562;7.508;2023-06-19T07:59:46;22.90;99.90
38118;DHT22;23928;47.562;7.508;2023-06-19T08:02:12;23.20;99.90
38118;DHT22;23928;47.562;7.508;2023-06-19T08:04:38;23.50;99.90
38118;DHT22;23928;47.562;7.508;2023-06-19T08:07:03;23.60;99.90
38118;DHT22;23928;47.562;7.508;2023-06-19T08:09:29;23.70;99.90
38118;DHT22;23928;47.562;7.508;2023-06-19T08:11:55;23.80;99.90
38118;DHT22;23928;47.562;7.508;2023-06-19T08:14:20;23.90;99.90
38118;DHT22;23928;47.562;7.508;2023-06-19T08:16:46;24.10;99.90
38118;DHT22;23928;47.562;7.508;2023-06-19T08:19:11;24.20;99.90
38118;DHT22;23928;47.562;7.508;2023-06-19T08:21:37;24.30;99.90
38118;DHT22;23928;47.562;7.508;2023-06-19T08:24:02;24.50;99.90
38118;DHT22;23928;47.562;7.508;2023-06-19T08:26:28;24.60;99.90
38118;DHT22;23928;47.562;7.508;2023-06-19T08:28:54;24.60;99.90
38118;DHT22;23928;47.562;7.508;2023-06-19T08:31:19;24.80;99.90
38118;DHT22;23928;47.562;7.508;2023-06-19T08:33:47;24.70;99.90
38118;DHT22;23928;47.562;7.508;2023-06-19T08:36:14;24.80;99.90
38118;DHT22;23928;47.562;7.508;2023-06-19T08:38:39;25.00;99.90
38118;DHT22;23928;47.562;7.508;2023-06-19T08:41:05;24.90;99.90
38118;DHT22;23928;47.562;7.508;2023-06-19T08:43:31;25.20;99.90
38118;DHT22;23928;47.562;7.508;2023-06-19T08:46:16;25.40;99.90
38118;DHT22;23928;47.562;7.508;2023-06-19T08:48:43;25.40;99.90
38118;DHT22;23928;47.562;7.508;2023-06-19T08:51:10;25.50;99.90
38118;DHT22;23928;47.562;7.508;2023-06-19T08:53:44;25.60;99.90
38118;DHT22;23928;47.562;7.508;2023-06-19T08:56:10;25.70;99.90
38118;DHT22;23928;47.562;7.508;2023-06-19T08:58:36;25.70;99.90
38118;DHT22;23928;47.562;7.508;2023-06-19T09:01:02;25.40;99.90
38118;DHT22;23928;47.562;7.508;2023-06-19T09:03:28;25.60;99.90
38118;DHT22;23928;47.562;7.508;2023-06-19T09:05:54;25.90;99.90
38118;DHT22;23928;47.562;7.508;2023-06-19T09:08:21;25.80;99.90
38118;DHT22;23928;47.562;7.508;2023-06-19T09:13:21;25.50;99.90
38118;DHT22;23928;47.562;7.508;2023-06-19T09:15:47;25.40;99.90
38118;DHT22;23928;47.562;7.508;2023-06-19T09:18:12;25.20;99.90
38118;DHT22;23928;47.562;7.508;2023-06-19T09:20:40;25.30;99.90
38118;DHT22;23928;47.562;7.508;2023-06-19T09:23:13;25.20;99.90
38118;DHT22;23928;47.562;7.508;2023-06-19T09:25:50;25.50;99.90
38118;DHT22;23928;47.562;7.508;2023-06-19T09:28:18;25.70;99.90
38118;DHT22;23928;47.562;7.508;2023-06-19T09:33:22;26.30;99.90
38118;DHT22;23928;47.562;7.508;2023-06-19T09:35:49;26.40;99.90
38118;DHT22;23928;47.562;7.508;2023-06-19T09:38:17;26.60;99.90
38118;DHT22;23928;47.562;7.508;2023-06-19T09:40:47;26.10;99.90
38118;DHT22;23928;47.562;7.508;2023-06-19T09:43:23;26.10;99.90
38118;DHT22;23928;47.562;7.508;2023-06-19T09:45:49;26.40;99.90
38118;DHT22;23928;47.562;7.508;2023-06-19T09:48:19;26.30;99.90
38118;DHT22;23928;47.562;7.508;2023-06-19T09:50:50;26.50;99.90
38118;DHT22;23928;47.562;7.508;2023-06-19T09:53:20;26.30;99.90
38118;DHT22;23928;47.562;7.508;2023-06-19T09:55:49;26.70;99.90
38118;DHT22;23928;47.562;7.508;2023-06-19T09:58:21;27.00;99.90
38118;DHT22;23928;47.562;7.508;2023-06-19T10:00:47;27.00;99.90
38118;DHT22;23928;47.562;7.508;2023-06-19T10:03:15;26.80;99.90
38118;DHT22;23928;47.562;7.508;2023-06-19T10:05:42;26.50;99.90
38118;DHT22;23928;47.562;7.508;2023-06-19T10:08:07;26.70;99.90
38118;DHT22;23928;47.562;7.508;2023-06-19T10:10:34;26.50;99.90
38118;DHT22;23928;47.562;7.508;2023-06-19T10:13:12;26.70;99.90
38118;DHT22;23928;47.562;7.508;2023-06-19T10:15:42;26.40;99.90
38118;DHT22;23928;47.562;7.508;2023-06-19T10:18:15;26.10;99.90
38118;DHT22;23928;47.562;7.508;2023-06-19T10:20:45;26.50;99.90
38118;DHT22;23928;47.562;7.508;2023-06-19T10:25:42;26.70;99.90
38118;DHT22;23928;47.562;7.508;2023-06-19T10:28:22;26.80;99.90
38118;DHT22;23928;47.562;7.508;2023-06-19T10:31:02;27.30;99.90
38118;DHT22;23928;47.562;7.508;2023-06-19T10:33:36;27.60;99.90
38118;DHT22;23928;47.562;7.508;2023-06-19T10:38:39;26.50;99.90
38118;DHT22;23928;47.562;7.508;2023-06-19T10:41:04;26.90;99.90
38118;DHT22;23928;47.562;7.508;2023-06-19T10:43:30;27.20;99.90
38118;DHT22;23928;47.562;7.508;2023-06-19T10:45:58;27.00;99.90
38118;DHT22;23928;47.562;7.508;2023-06-19T10:48:24;27.00;99.90
38118;DHT22;23928;47.562;7.508;2023-06-19T10:50:50;27.00;99.90
38118;DHT22;23928;47.562;7.508;2023-06-19T10:53:46;26.80;99.90
38118;DHT22;23928;47.562;7.508;2023-06-19T10:56:11;27.00;99.90
38118;DHT22;23928;47.562;7.508;2023-06-19T10:58:37;27.30;99.90
38118;DHT22;23928;47.562;7.508;2023-06-19T11:01:02;27.00;99.90
38118;DHT22;23928;47.562;7.508;2023-06-19T11:03:29;26.70;99.90
38118;DHT22;23928;47.562;7.508;2023-06-19T11:05:57;27.00;99.90
38118;DHT22;23928;47.562;7.508;2023-06-19T11:08:23;26.70;99.90
38118;DHT22;23928;47.562;7.508;2023-06-19T11:10:50;26.50;99.90
38118;DHT22;23928;47.562;7.508;2023-06-19T11:13:17;26.60;99.90
38118;DHT22;23928;47.562;7.508;2023-06-19T11:15:44;26.50;99.90
38118;DHT22;23928;47.562;7.508;2023-06-19T11:18:10;26.20;99.90
38118;DHT22;23928;47.562;7.508;2023-06-19T11:20:50;26.00;99.90
38118;DHT22;23928;47.562;7.508;2023-06-19T11:23:17;26.20;99.90
38118;DHT22;23928;47.562;7.508;2023-06-19T11:25:49;26.20;99.90
38118;DHT22;23928;47.562;7.508;2023-06-19T11:28:16;26.50;99.90
38118;DHT22;23928;47.562;7.508;2023-06-19T11:30:48;26.70;99.90
38118;DHT22;23928;47.562;7.508;2023-06-19T11:33:19;27.00;99.90
38118;DHT22;23928;47.562;7.508;2023-06-19T11:35:52;26.60;99.90
38118;DHT22;23928;47.562;7.508;2023-06-19T11:38:24;26.60;99.90
38118;DHT22;23928;47.562;7.508;2023-06-19T11:40:50;26.50;99.90
38118;DHT22;23928;47.562;7.508;2023-06-19T11:43:26;26.40;99.90
38118;DHT22;23928;47.562;7.508;2023-06-19T11:45:52;26.30;99.90
38118;DHT22;23928;47.562;7.508;2023-06-19T11:48:24;26.30;99.90
38118;DHT22;23928;47.562;7.508;2023-06-19T11:50:51;26.40;99.90
38118;DHT22;23928;47.562;7.508;2023-06-19T11:53:17;26.30;99.90
38118;DHT22;23928;47.562;7.508;2023-06-19T11:55:43;26.20;99.90
38118;DHT22;23928;47.562;7.508;2023-06-19T11:58:09;26.20;99.90
38118;DHT22;23928;47.562;7.508;2023-06-19T12:00:36;26.30;99.90
38118;DHT22;23928;47.562;7.508;2023-06-19T12:03:02;26.40;99.90
38118;DHT22;23928;47.562;7.508;2023-06-19T12:05:28;26.30;99.90
38118;DHT22;23928;47.562;7.508;2023-06-19T12:07:54;26.80;99.90
38118;DHT22;23928;47.562;7.508;2023-06-19T12:10:19;27.00;99.90
38118;DHT22;23928;47.562;7.508;2023-06-19T12:12:45;26.40;99.90
38118;DHT22;23928;47.562;7.508;2023-06-19T12:15:10;26.50;99.90
38118;DHT22;23928;47.562;7.508;2023-06-19T12:17:36;26.20;99.90
38118;DHT22;23928;47.562;7.508;2023-06-19T12:20:03;26.00;99.90
38118;DHT22;23928;47.562;7.508;2023-06-19T12:22:33;25.90;99.90
38118;DHT22;23928;47.562;7.508;2023-06-19T12:24:59;26.00;99.90
38118;DHT22;23928;47.562;7.508;2023-06-19T12:27:24;26.10;99.90
38118;DHT22;23928;47.562;7.508;2023-06-19T12:29:50;26.10;99.90
38118;DHT22;23928;47.562;7.508;2023-06-19T12:32:15;26.10;99.90
38118;DHT22;23928;47.562;7.508;2023-06-19T12:34:41;26.20;99.90
38118;DHT22;23928;47.562;7.508;2023-06-19T12:37:15;26.50;99.90
38118;DHT22;23928;47.562;7.508;2023-06-19T12:39:41;26.50;99.90
38118;DHT22;23928;47.562;7.508;2023-06-19T12:42:07;26.40;99.90
38118;DHT22;23928;47.562;7.508;2023-06-19T12:44:33;26.70;99.90
38118;DHT22;23928;47.562;7.508;2023-06-19T12:46:58;26.80;99.90
38118;DHT22;23928;47.562;7.508;2023-06-19T12:49:25;26.90;99.90
38118;DHT22;23928;47.562;7.508;2023-06-19T12:51:51;26.80;99.90
38118;DHT22;23928;47.562;7.508;2023-06-19T12:54:17;26.70;99.90
38118;DHT22;23928;47.562;7.508;2023-06-19T12:56:44;27.30;99.90
38118;DHT22;23928;47.562;7.508;2023-06-19T12:59:09;27.40;99.90
38118;DHT22;23928;47.562;7.508;2023-06-19T13:01:35;27.50;99.90
38118;DHT22;23928;47.562;7.508;2023-06-19T13:04:01;27.80;99.90
38118;DHT22;23928;47.562;7.508;2023-06-19T13:06:26;27.40;99.90
38118;DHT22;23928;47.562;7.508;2023-06-19T13:08:52;27.20;99.90
38118;DHT22;23928;47.562;7.508;2023-06-19T13:11:18;27.00;99.90
38118;DHT22;23928;47.562;7.508;2023-06-19T13:13:43;27.90;99.90
38118;DHT22;23928;47.562;7.508;2023-06-19T13:16:09;27.40;99.90
38118;DHT22;23928;47.562;7.508;2023-06-19T13:18:37;26.90;99.90
38118;DHT22;23928;47.562;7.508;2023-06-19T13:21:03;27.00;99.90
38118;DHT22;23928;47.562;7.508;2023-06-19T13:23:28;27.50;99.90
38118;DHT22;23928;47.562;7.508;2023-06-19T13:25:56;28.10;99.90
38118;DHT22;23928;47.562;7.508;2023-06-19T13:28:22;28.30;99.90
38118;DHT22;23928;47.562;7.508;2023-06-19T13:30:47;29.20;99.90
38118;DHT22;23928;47.562;7.508;2023-06-19T13:33:13;29.10;99.90
38118;DHT22;23928;47.562;7.508;2023-06-19T13:35:38;28.80;99.90
38118;DHT22;23928;47.562;7.508;2023-06-19T13:38:04;29.00;99.90
38118;DHT22;23928;47.562;7.508;2023-06-19T13:40:30;29.40;99.90
38118;DHT22;23928;47.562;7.508;2023-06-19T13:42:55;28.70;99.90
38118;DHT22;23928;47.562;7.508;2023-06-19T13:45:21;28.70;99.90
38118;DHT22;23928;47.562;7.508;2023-06-19T13:47:47;28.60;99.90
38118;DHT22;23928;47.562;7.508;2023-06-19T13:50:12;28.90;99.90
38118;DHT22;23928;47.562;7.508;2023-06-19T13:52:46;29.90;99.90
38118;DHT22;23928;47.562;7.508;2023-06-19T13:55:13;29.40;99.90
38118;DHT22;23928;47.562;7.508;2023-06-19T13:57:40;29.10;99.90
38118;DHT22;23928;47.562;7.508;2023-06-19T14:00:07;29.60;99.90
38118;DHT22;23928;47.562;7.508;2023-06-19T14:02:34;29.90;99.90
38118;DHT22;23928;47.562;7.508;2023-06-19T14:04:59;29.90;99.90
38118;DHT22;23928;47.562;7.508;2023-06-19T14:07:25;30.00;99.90
38118;DHT22;23928;47.562;7.508;2023-06-19T14:09:52;29.60;99.90
38118;DHT22;23928;47.562;7.508;2023-06-19T14:12:19;30.00;99.90
38118;DHT22;23928;47.562;7.508;2023-06-19T14:14:44;29.40;99.90
38118;DHT22;23928;47.562;7.508;2023-06-19T14:17:10;29.70;99.90
38118;DHT22;23928;47.562;7.508;2023-06-19T14:19:35;30.30;99.90
38118;DHT22;23928;47.562;7.508;2023-06-19T14:22:01;30.90;99.90
38118;DHT22;23928;47.562;7.508;2023-06-19T14:24:27;30.20;99.90
38118;DHT22;23928;47.562;7.508;2023-06-19T14:26:53;30.50;99.90
38118;DHT22;23928;47.562;7.508;2023-06-19T14:29:19;30.90;99.90
38118;DHT22;23928;47.562;7.508;2023-06-19T14:31:46;31.20;99.90
38118;DHT22;23928;47.562;7.508;2023-06-19T14:34:11;31.70;99.90
38118;DHT22;23928;47.562;7.508;2023-06-19T14:36:38;31.90;99.90
38118;DHT22;23928;47.562;7.508;2023-06-19T14:39:04;31.40;99.90
38118;DHT22;23928;47.562;7.508;2023-06-19T14:41:29;31.60;99.90
38118;DHT22;23928;47.562;7.508;2023-06-19T14:43:55;31.70;99.90
38118;DHT22;23928;47.562;7.508;2023-06-19T14:46:20;32.50;99.90
38118;DHT22;23928;47.562;7.508;2023-06-19T14:48:46;32.80;99.90
38118;DHT22;23928;47.562;7.508;2023-06-19T14:51:12;33.50;99.90
38118;DHT22;23928;47.562;7.508;2023-06-19T14:53:38;33.70;99.90
38118;DHT22;23928;47.562;7.508;2023-06-19T14:56:03;32.60;99.90
38118;DHT22;23928;47.562;7.508;2023-06-19T14:58:29;32.10;99.90
38118;DHT22;23928;47.562;7.508;2023-06-19T15:00:55;31.30;99.90
38118;DHT22;23928;47.562;7.508;2023-06-19T15:03:20;31.60;99.90
38118;DHT22;23928;47.562;7.508;2023-06-19T15:05:46;30.90;99.90
38118;DHT22;23928;47.562;7.508;2023-06-19T15:08:11;30.80;99.90
38118;DHT22;23928;47.562;7.508;2023-06-19T15:10:37;30.40;99.90
38118;DHT22;23928;47.562;7.508;2023-06-19T15:13:03;31.20;99.90
38118;DHT22;23928;47.562;7.508;2023-06-19T15:15:28;31.80;99.90
38118;DHT22;23928;47.562;7.508;2023-06-19T15:17:54;31.20;99.90
38118;DHT22;23928;47.562;7.508;2023-06-19T15:20:20;31.00;99.90
38118;DHT22;23928;47.562;7.508;2023-06-19T15:22:46;31.90;99.90
38118;DHT22;23928;47.562;7.508;2023-06-19T15:25:12;32.30;99.90
38118;DHT22;23928;47.562;7.508;2023-06-19T15:27:38;32.10;99.90
38118;DHT22;23928;47.562;7.508;2023-06-19T15:30:04;31.70;99.90
38118;DHT22;23928;47.562;7.508;2023-06-19T15:32:30;32.40;99.90
38118;DHT22;23928;47.562;7.508;2023-06-19T15:34:55;31.00;99.90
38118;DHT22;23928;47.562;7.508;2023-06-19T15:37:21;31.10;99.90